createdAt,value
2019-01-24T00:02:20.969Z,-0.30
2019-01-24T00:04:47.175Z,-0.40
2019-01-24T00:07:13.443Z,-0.49
2019-01-24T00:09:39.584Z,-0.54
2019-01-24T00:12:05.731Z,-0.51
2019-01-24T00:14:31.881Z,-0.48
2019-01-24T00:16:58.075Z,-0.53
2019-01-24T00:19:24.253Z,-0.54
2019-01-24T00:21:50.356Z,-0.52
2019-01-24T00:24:16.503Z,-0.45
2019-01-24T00:26:42.600Z,-0.44
2019-01-24T00:29:08.702Z,-0.44
2019-01-24T00:31:34.994Z,-0.44
2019-01-24T00:34:01.103Z,-0.41
2019-01-24T00:36:27.345Z,-0.40
2019-01-24T00:38:53.465Z,-0.38
2019-01-24T00:41:19.627Z,-0.40
2019-01-24T00:43:45.829Z,-0.43
2019-01-24T00:46:11.974Z,-0.44
2019-01-24T00:48:38.091Z,-0.41
2019-01-24T00:51:04.264Z,-0.41
2019-01-24T00:53:30.351Z,-0.40
2019-01-24T00:55:56.479Z,-0.40
2019-01-24T00:58:22.626Z,-0.43
2019-01-24T01:00:48.776Z,-0.43
2019-01-24T01:03:15.024Z,-0.45
2019-01-24T01:05:41.235Z,-0.45
2019-01-24T01:08:07.376Z,-0.44
2019-01-24T01:10:33.614Z,-0.45
2019-01-24T01:12:59.729Z,-0.48
2019-01-24T01:15:25.860Z,-0.49
2019-01-24T01:17:51.988Z,-0.50
2019-01-24T01:20:19.953Z,-0.51
2019-01-24T01:22:46.051Z,-0.51
2019-01-24T01:25:12.418Z,-0.53
2019-01-24T01:27:38.647Z,-0.54
2019-01-24T01:30:10.819Z,-0.54
2019-01-24T01:32:36.986Z,-0.53
2019-01-24T01:35:04.369Z,-0.54
2019-01-24T01:37:30.572Z,-0.55
2019-01-24T01:39:56.717Z,-0.55
2019-01-24T01:42:23.002Z,-0.56
2019-01-24T01:44:49.107Z,-0.54
2019-01-24T01:47:15.234Z,-0.51
2019-01-24T01:49:41.346Z,-0.53
2019-01-24T01:52:07.479Z,-0.55
2019-01-24T01:54:33.607Z,-0.55
2019-01-24T01:56:59.751Z,-0.56
2019-01-24T01:59:25.912Z,-0.59
2019-01-24T02:01:52.128Z,-0.59
2019-01-24T02:04:18.241Z,-0.70
2019-01-24T02:06:44.376Z,-0.93
2019-01-24T02:09:10.506Z,-1.06
2019-01-24T02:11:36.638Z,-1.12
2019-01-24T02:14:03.546Z,-1.10
2019-01-24T02:16:29.679Z,-1.14
2019-01-24T02:18:55.790Z,-1.28
2019-01-24T02:21:22.328Z,-1.41
2019-01-24T02:23:48.426Z,-1.43
2019-01-24T02:26:14.656Z,-1.48
2019-01-24T02:28:40.799Z,-1.62
2019-01-24T02:31:06.929Z,-1.69
2019-01-24T02:33:33.094Z,-1.73
2019-01-24T02:35:59.227Z,-1.78
2019-01-24T02:38:25.355Z,-1.80
2019-01-24T02:40:51.751Z,-1.85
2019-01-24T02:43:18.052Z,-1.89
2019-01-24T02:45:44.141Z,-1.97
2019-01-24T02:48:10.293Z,-2.05
2019-01-24T02:50:36.394Z,-2.10
2019-01-24T02:53:02.620Z,-2.13
2019-01-24T02:55:30.651Z,-2.17
2019-01-24T02:57:56.781Z,-2.17
2019-01-24T03:00:23.116Z,-2.15
2019-01-24T03:02:49.287Z,-2.10
2019-01-24T03:05:17.801Z,-2.07
2019-01-24T03:07:43.951Z,-1.97
2019-01-24T03:10:12.610Z,-1.91
2019-01-24T03:12:38.796Z,-1.85
2019-01-24T03:15:08.256Z,-1.82
2019-01-24T03:17:34.502Z,-1.75
2019-01-24T03:20:00.654Z,-1.70
2019-01-24T03:22:26.856Z,-1.66
2019-01-24T03:24:52.961Z,-1.60
2019-01-24T03:27:19.201Z,-1.58
2019-01-24T03:29:45.358Z,-1.58
2019-01-24T03:32:11.622Z,-1.55
2019-01-24T03:34:37.732Z,-1.57
2019-01-24T03:37:03.963Z,-1.57
2019-01-24T03:39:30.083Z,-1.54
2019-01-24T03:41:56.222Z,-1.57
2019-01-24T03:44:22.325Z,-1.62
2019-01-24T03:46:48.477Z,-1.69
2019-01-24T03:49:14.599Z,-1.76
2019-01-24T03:51:40.757Z,-1.83
2019-01-24T03:54:06.925Z,-1.89
2019-01-24T03:56:33.039Z,-1.97
2019-01-24T03:58:59.121Z,-2.07
2019-01-24T04:01:25.278Z,-2.12
2019-01-24T04:03:51.476Z,-2.18
2019-01-24T04:06:17.582Z,-2.24
2019-01-24T04:08:43.702Z,-2.32
2019-01-24T04:11:09.796Z,-2.38
2019-01-24T04:13:36.040Z,-2.44
2019-01-24T04:16:02.183Z,-2.41
2019-01-24T04:18:28.307Z,-2.48
2019-01-24T04:20:54.482Z,-2.56
2019-01-24T04:23:21.075Z,-2.62
2019-01-24T04:25:47.212Z,-2.68
2019-01-24T04:28:13.357Z,-2.70
2019-01-24T04:30:39.520Z,-2.81
2019-01-24T04:33:05.692Z,-2.90
2019-01-24T04:35:31.806Z,-2.89
2019-01-24T04:37:57.949Z,-2.84
2019-01-24T04:40:24.203Z,-2.81
2019-01-24T04:42:50.338Z,-2.75
2019-01-24T04:45:16.956Z,-2.67
2019-01-24T04:47:43.086Z,-2.61
2019-01-24T04:50:11.639Z,-2.53
2019-01-24T04:52:37.745Z,-2.49
2019-01-24T04:55:06.285Z,-2.39
2019-01-24T04:57:32.512Z,-2.31
2019-01-24T04:59:58.766Z,-2.25
2019-01-24T05:02:24.972Z,-2.21
2019-01-24T05:04:51.142Z,-2.18
2019-01-24T05:07:17.323Z,-2.18
2019-01-24T05:09:43.471Z,-2.26
2019-01-24T05:12:09.742Z,-2.35
2019-01-24T05:14:35.839Z,-2.48
2019-01-24T05:17:02.088Z,-2.52
2019-01-24T05:19:28.184Z,-2.57
2019-01-24T05:21:54.326Z,-2.61
2019-01-24T05:24:20.615Z,-2.66
2019-01-24T05:26:46.753Z,-2.72
2019-01-24T05:29:13.017Z,-2.79
2019-01-24T05:31:39.137Z,-2.87
2019-01-24T05:34:05.272Z,-2.93
2019-01-24T05:36:31.427Z,-2.99
2019-01-24T05:38:57.615Z,-3.08
2019-01-24T05:41:23.754Z,-3.12
2019-01-24T05:43:49.888Z,-3.17
2019-01-24T05:46:16.138Z,-3.21
2019-01-24T05:48:44.672Z,-3.26
2019-01-24T05:51:10.899Z,-3.28
2019-01-24T05:53:37.047Z,-3.40
2019-01-24T05:56:03.169Z,-3.52
2019-01-24T05:58:29.418Z,-3.61
2019-01-24T06:00:55.638Z,-3.73
2019-01-24T06:03:21.823Z,-3.85
2019-01-24T06:05:47.970Z,-3.94
2019-01-24T06:08:14.107Z,-3.88
2019-01-24T06:10:40.346Z,-3.88
2019-01-24T06:13:06.594Z,-3.84
2019-01-24T06:15:33.166Z,-3.85
2019-01-24T06:17:59.313Z,-3.82
2019-01-24T06:20:25.489Z,-3.79
2019-01-24T06:22:51.633Z,-3.74
2019-01-24T06:25:17.808Z,-3.77
2019-01-24T06:27:43.916Z,-3.80
2019-01-24T06:30:19.043Z,-3.88
2019-01-24T06:32:45.186Z,-3.91
2019-01-24T06:35:11.494Z,-3.91
2019-01-24T06:37:37.960Z,-4.07
2019-01-24T06:40:07.161Z,-4.07
2019-01-24T06:42:33.331Z,-4.04
2019-01-24T06:44:59.467Z,-4.07
2019-01-24T06:47:25.637Z,-4.07
2019-01-24T06:49:51.777Z,-4.03
2019-01-24T06:52:17.917Z,-3.93
2019-01-24T06:54:44.048Z,-3.76
2019-01-24T06:57:10.219Z,-3.67
2019-01-24T06:59:36.450Z,-3.67
2019-01-24T07:02:02.983Z,-3.56
2019-01-24T07:04:29.226Z,-3.51
2019-01-24T07:06:55.435Z,-3.41
2019-01-24T07:09:21.583Z,-3.36
2019-01-24T07:11:47.753Z,-3.36
2019-01-24T07:14:13.916Z,-3.34
2019-01-24T07:16:40.052Z,-3.31
2019-01-24T07:19:06.172Z,-3.32
2019-01-24T07:21:32.333Z,-3.32
2019-01-24T07:23:58.489Z,-3.22
2019-01-24T07:26:24.598Z,-3.09
2019-01-24T07:28:50.718Z,-2.96
2019-01-24T07:31:16.906Z,-2.85
2019-01-24T07:33:43.103Z,-2.74
2019-01-24T07:36:09.446Z,-2.67
2019-01-24T07:38:35.579Z,-2.60
2019-01-24T07:41:01.736Z,-2.54
2019-01-24T07:43:27.860Z,-2.49
2019-01-24T07:45:54.013Z,-2.44
2019-01-24T07:48:20.197Z,-2.41
2019-01-24T07:50:46.423Z,-2.35
2019-01-24T07:53:12.708Z,-2.30
2019-01-24T07:55:38.853Z,-2.26
2019-01-24T07:58:05.075Z,-2.22
2019-01-24T08:00:31.235Z,-2.17
2019-01-24T08:02:57.679Z,-2.14
2019-01-24T08:05:25.959Z,-2.07
2019-01-24T08:07:52.075Z,-2.04
2019-01-24T08:10:19.913Z,-2.04
2019-01-24T08:12:46.168Z,-2.03
2019-01-24T08:15:14.574Z,-1.96
2019-01-24T08:17:41.409Z,-1.95
2019-01-24T08:20:10.845Z,-1.94
2019-01-24T08:22:36.938Z,-1.89
2019-01-24T08:25:05.999Z,-1.85
2019-01-24T08:27:32.201Z,-1.82
2019-01-24T08:29:58.303Z,-1.72
2019-01-24T08:32:24.780Z,-1.70
2019-01-24T08:34:50.966Z,-1.67
2019-01-24T08:37:17.074Z,-1.60
2019-01-24T08:39:45.012Z,-1.49
2019-01-24T08:42:11.145Z,-1.46
2019-01-24T08:44:37.252Z,-1.37
2019-01-24T08:47:03.813Z,-1.31
2019-01-24T08:49:29.931Z,-1.21
2019-01-24T08:51:56.070Z,-1.14
2019-01-24T08:54:22.179Z,-1.07
2019-01-24T08:56:48.318Z,-0.98
2019-01-24T08:59:14.451Z,-0.88
2019-01-24T09:01:40.678Z,-0.82
2019-01-24T09:04:06.789Z,-0.77
2019-01-24T09:06:32.917Z,-0.69
2019-01-24T09:08:59.066Z,-0.64
2019-01-24T09:11:25.172Z,-0.61
2019-01-24T09:13:51.296Z,-0.55
2019-01-24T09:16:17.444Z,-0.47
2019-01-24T09:18:43.681Z,-0.40
2019-01-24T09:21:09.974Z,-0.34
2019-01-24T09:23:36.184Z,-0.26
2019-01-24T09:26:02.437Z,-0.24
2019-01-24T09:28:28.573Z,-0.24
2019-01-24T09:30:54.722Z,-0.15
2019-01-24T09:33:20.830Z,-0.09
2019-01-24T09:35:47.104Z,-0.11
2019-01-24T09:38:13.298Z,-0.03
2019-01-24T09:40:39.444Z,-0.01
2019-01-24T09:43:05.560Z,-0.03
2019-01-24T09:45:31.697Z,0.07
2019-01-24T09:47:58.489Z,0.15
2019-01-24T09:50:25.503Z,0.22
2019-01-24T09:52:51.763Z,0.27
2019-01-24T09:55:17.911Z,0.33
2019-01-24T09:57:44.306Z,0.36
2019-01-24T10:00:16.284Z,0.37
2019-01-24T10:02:42.469Z,0.43
2019-01-24T10:05:08.808Z,0.50
2019-01-24T10:07:34.960Z,0.57
2019-01-24T10:10:01.124Z,0.71
2019-01-24T10:12:27.268Z,0.80
2019-01-24T10:14:53.391Z,0.89
2019-01-24T10:17:19.553Z,1.01
2019-01-24T10:19:45.658Z,1.08
2019-01-24T10:22:11.859Z,1.16
2019-01-24T10:24:38.076Z,1.16
2019-01-24T10:27:04.240Z,1.22
2019-01-24T10:29:30.507Z,1.31
2019-01-24T10:31:56.703Z,1.38
2019-01-24T10:34:22.950Z,1.44
2019-01-24T10:36:49.175Z,1.51
2019-01-24T10:39:15.327Z,1.56
2019-01-24T10:41:41.418Z,1.55
2019-01-24T10:44:07.525Z,1.59
2019-01-24T10:46:33.650Z,1.61
2019-01-24T10:48:59.806Z,1.61
2019-01-24T10:51:25.952Z,1.59
2019-01-24T10:53:52.101Z,1.58
2019-01-24T10:56:18.241Z,1.48
2019-01-24T10:58:44.364Z,1.47
2019-01-24T11:01:10.513Z,1.47
2019-01-24T11:03:36.635Z,1.48
2019-01-24T11:06:02.966Z,1.48
2019-01-24T11:08:29.069Z,1.35
2019-01-24T11:10:55.221Z,1.34
2019-01-24T11:13:21.449Z,1.34
2019-01-24T11:15:47.562Z,1.38
2019-01-24T11:18:13.565Z,1.35
2019-01-24T11:20:39.978Z,1.46
2019-01-24T11:23:06.205Z,1.54
2019-01-24T11:25:32.399Z,1.69
2019-01-24T11:27:58.626Z,1.87
2019-01-24T11:30:27.484Z,1.99
2019-01-24T11:32:53.878Z,2.12
2019-01-24T11:35:22.545Z,2.27
2019-01-24T11:37:48.698Z,2.35
2019-01-24T11:40:16.633Z,2.41
2019-01-24T11:42:42.882Z,2.45
2019-01-24T11:45:11.145Z,2.53
2019-01-24T11:47:37.254Z,2.57
2019-01-24T11:50:07.111Z,2.41
2019-01-24T11:52:33.215Z,2.31
2019-01-24T11:54:59.338Z,2.35
2019-01-24T11:57:25.447Z,2.38
2019-01-24T11:59:51.602Z,2.34
2019-01-24T12:02:17.826Z,2.38
2019-01-24T12:04:44.230Z,2.37
2019-01-24T12:07:10.364Z,2.32
2019-01-24T12:09:36.346Z,2.36
2019-01-24T12:12:02.715Z,2.50
2019-01-24T12:14:28.824Z,2.63
2019-01-24T12:16:55.026Z,2.73
2019-01-24T12:19:21.160Z,2.81
2019-01-24T12:21:47.373Z,2.89
2019-01-24T12:24:13.399Z,2.95
2019-01-24T12:26:39.557Z,2.95
2019-01-24T12:29:05.694Z,2.92
2019-01-24T12:31:31.829Z,2.93
2019-01-24T12:33:57.941Z,2.90
2019-01-24T12:36:24.071Z,2.94
2019-01-24T12:38:50.207Z,2.90
2019-01-24T12:41:16.362Z,2.89
2019-01-24T12:43:42.726Z,2.86
2019-01-24T12:46:08.867Z,2.83
2019-01-24T12:48:34.941Z,2.87
2019-01-24T12:51:01.074Z,2.88
2019-01-24T12:53:27.172Z,2.90
2019-01-24T12:55:53.296Z,2.91
2019-01-24T12:58:19.330Z,2.87
2019-01-24T13:00:45.455Z,2.86
2019-01-24T13:03:11.588Z,2.83
2019-01-24T13:05:37.692Z,2.86
2019-01-24T13:08:03.938Z,2.83
2019-01-24T13:10:30.007Z,2.88
2019-01-24T13:12:56.392Z,2.85
2019-01-24T13:15:25.483Z,2.88
2019-01-24T13:17:51.726Z,2.91
2019-01-24T13:20:17.830Z,2.92
2019-01-24T13:22:43.953Z,2.94
2019-01-24T13:25:13.220Z,2.97
2019-01-24T13:27:39.486Z,2.92
2019-01-24T13:30:24.109Z,2.89
2019-01-24T13:32:50.221Z,2.89
2019-01-24T13:35:16.374Z,2.91
2019-01-24T13:37:42.673Z,2.86
2019-01-24T13:40:12.101Z,2.87
2019-01-24T13:42:38.234Z,2.94
2019-01-24T13:45:07.955Z,2.92
2019-01-24T13:47:34.125Z,2.96
2019-01-24T13:50:00.317Z,2.91
2019-01-24T13:52:26.495Z,2.96
2019-01-24T13:54:52.593Z,2.96
2019-01-24T13:57:18.719Z,3.01
2019-01-24T13:59:44.879Z,2.97
2019-01-24T14:02:11.114Z,2.98
2019-01-24T14:04:37.338Z,3.00
2019-01-24T14:07:03.611Z,3.00
2019-01-24T14:09:29.815Z,2.97
2019-01-24T14:11:55.978Z,2.96
2019-01-24T14:14:22.071Z,2.96
2019-01-24T14:16:48.221Z,2.93
2019-01-24T14:19:14.365Z,2.84
2019-01-24T14:21:40.475Z,2.83
2019-01-24T14:24:06.631Z,2.83
2019-01-24T14:26:32.708Z,2.82
2019-01-24T14:28:58.835Z,2.85
2019-01-24T14:31:24.964Z,2.82
2019-01-24T14:33:51.126Z,2.79
2019-01-24T14:36:17.558Z,2.70
2019-01-24T14:38:43.766Z,2.64
2019-01-24T14:41:09.858Z,2.61
2019-01-24T14:43:35.995Z,2.57
2019-01-24T14:46:02.100Z,2.57
2019-01-24T14:48:28.190Z,2.54
2019-01-24T14:50:54.315Z,2.51
2019-01-24T14:53:20.380Z,2.49
2019-01-24T14:55:46.528Z,2.49
2019-01-24T14:58:12.680Z,2.43
2019-01-24T15:00:42.443Z,2.39
2019-01-24T15:03:08.528Z,2.38
2019-01-24T15:05:34.708Z,2.37
2019-01-24T15:08:00.817Z,2.34
2019-01-24T15:10:27.526Z,2.31
2019-01-24T15:12:53.710Z,2.31
2019-01-24T15:15:21.205Z,2.32
2019-01-24T15:17:47.308Z,2.30
2019-01-24T15:20:15.510Z,2.29
2019-01-24T15:22:41.635Z,2.29
2019-01-24T15:25:10.466Z,2.27
2019-01-24T15:27:36.601Z,2.29
2019-01-24T15:30:06.114Z,2.31
2019-01-24T15:32:32.235Z,2.29
2019-01-24T15:34:58.245Z,2.31
2019-01-24T15:37:24.410Z,2.27
2019-01-24T15:39:50.471Z,2.24
2019-01-24T15:42:16.646Z,2.23
2019-01-24T15:44:42.772Z,2.25
2019-01-24T15:47:08.952Z,2.23
2019-01-24T15:49:35.080Z,2.23
2019-01-24T15:52:01.466Z,2.23
2019-01-24T15:54:27.592Z,2.22
2019-01-24T15:56:53.673Z,2.22
2019-01-24T15:59:19.848Z,2.18
2019-01-24T16:01:45.962Z,2.17
2019-01-24T16:04:12.125Z,2.15
2019-01-24T16:06:38.240Z,2.13
2019-01-24T16:09:06.211Z,2.10
2019-01-24T16:11:32.332Z,2.09
2019-01-24T16:13:58.549Z,2.06
2019-01-24T16:16:24.637Z,2.01
2019-01-24T16:18:50.877Z,1.95
2019-01-24T16:21:16.982Z,1.91
2019-01-24T16:23:43.065Z,1.88
2019-01-24T16:26:09.200Z,1.85
2019-01-24T16:28:35.283Z,1.82
2019-01-24T16:31:01.400Z,1.80
2019-01-24T16:33:27.528Z,1.80
2019-01-24T16:35:53.818Z,1.81
2019-01-24T16:38:19.961Z,1.83
2019-01-24T16:40:46.088Z,1.83
2019-01-24T16:43:12.209Z,1.82
2019-01-24T16:45:39.317Z,1.82
2019-01-24T16:48:05.443Z,1.82
2019-01-24T16:50:31.529Z,1.80
2019-01-24T16:52:57.632Z,1.78
2019-01-24T16:55:23.795Z,1.82
2019-01-24T16:57:50.736Z,1.81
2019-01-24T17:00:25.723Z,1.80
2019-01-24T17:02:52.025Z,1.79
2019-01-24T17:05:18.087Z,1.77
2019-01-24T17:07:44.351Z,1.74
2019-01-24T17:10:14.115Z,1.76
2019-01-24T17:12:40.250Z,1.76
2019-01-24T17:15:08.979Z,1.76
2019-01-24T17:17:35.113Z,1.74
2019-01-24T17:20:01.220Z,1.72
2019-01-24T17:22:27.343Z,1.70
2019-01-24T17:24:53.923Z,1.67
2019-01-24T17:27:20.213Z,1.65
2019-01-24T17:29:46.302Z,1.66
2019-01-24T17:32:12.435Z,1.62
2019-01-24T17:34:38.701Z,1.60
2019-01-24T17:37:04.905Z,1.58
2019-01-24T17:39:31.040Z,1.56
2019-01-24T17:41:57.286Z,1.54
2019-01-24T17:44:23.430Z,1.56
2019-01-24T17:46:49.634Z,1.56
2019-01-24T17:49:15.747Z,1.57
2019-01-24T17:51:42.017Z,1.59
2019-01-24T17:54:08.186Z,1.58
2019-01-24T17:56:34.331Z,1.57
2019-01-24T17:59:00.763Z,1.57
2019-01-24T18:01:26.868Z,1.56
2019-01-24T18:03:53.009Z,1.55
2019-01-24T18:06:19.215Z,1.53
2019-01-24T18:08:45.369Z,1.53
2019-01-24T18:11:11.531Z,1.52
2019-01-24T18:13:37.768Z,1.52
2019-01-24T18:16:04.247Z,1.52
2019-01-24T18:18:30.408Z,1.52
2019-01-24T18:20:56.501Z,1.52
2019-01-24T18:23:22.920Z,1.53
2019-01-24T18:25:49.044Z,1.51
2019-01-24T18:28:15.173Z,1.51
2019-01-24T18:30:41.610Z,1.50
2019-01-24T18:33:07.759Z,1.51
2019-01-24T18:35:33.966Z,1.50
2019-01-24T18:38:00.117Z,1.50
2019-01-24T18:40:30.000Z,1.46
2019-01-24T18:42:56.448Z,1.41
2019-01-24T18:45:38.041Z,1.37
2019-01-24T18:48:05.193Z,1.33
2019-01-24T18:50:31.361Z,1.28
2019-01-24T18:52:57.480Z,1.24
2019-01-24T18:55:23.584Z,1.19
2019-01-24T18:57:49.706Z,1.14
2019-01-24T19:00:26.108Z,1.11
2019-01-24T19:02:52.243Z,1.06
2019-01-24T19:05:18.455Z,0.99
2019-01-24T19:07:44.558Z,0.94
2019-01-24T19:10:12.596Z,0.85
2019-01-24T19:12:38.753Z,0.78
2019-01-24T19:15:16.891Z,0.73
2019-01-24T19:17:43.830Z,0.65
2019-01-24T19:20:11.421Z,0.57
2019-01-24T19:22:37.588Z,0.52
2019-01-24T19:25:10.268Z,0.49
2019-01-24T19:27:36.409Z,0.46
2019-01-24T19:30:06.133Z,0.43
2019-01-24T19:32:32.275Z,0.38
2019-01-24T19:34:58.566Z,0.31
2019-01-24T19:37:24.821Z,0.29
2019-01-24T19:39:50.953Z,0.29
2019-01-24T19:42:17.062Z,0.27
2019-01-24T19:44:43.211Z,0.27
2019-01-24T19:47:09.369Z,0.27
2019-01-24T19:49:35.499Z,0.29
2019-01-24T19:52:01.670Z,0.32
2019-01-24T19:54:27.802Z,0.35
2019-01-24T19:56:54.569Z,0.37
2019-01-24T19:59:20.785Z,0.40
2019-01-24T20:01:47.026Z,0.42
2019-01-24T20:04:13.131Z,0.41
2019-01-24T20:06:39.268Z,0.42
2019-01-24T20:09:06.534Z,0.43
2019-01-24T20:11:32.709Z,0.42
2019-01-24T20:13:58.835Z,0.42
2019-01-24T20:16:27.427Z,0.40
2019-01-24T20:18:53.565Z,0.38
2019-01-24T20:21:19.720Z,0.33
2019-01-24T20:23:45.910Z,0.30
2019-01-24T20:26:15.184Z,0.24
2019-01-24T20:28:41.355Z,0.22
2019-01-24T20:31:07.592Z,0.17
2019-01-24T20:33:33.958Z,0.15
2019-01-24T20:36:00.135Z,0.10
2019-01-24T20:38:26.492Z,0.05
2019-01-24T20:40:53.160Z,0.02
2019-01-24T20:43:19.437Z,0.04
2019-01-24T20:45:45.599Z,0.02
2019-01-24T20:48:11.839Z,0.01
2019-01-24T20:50:38.205Z,0.02
2019-01-24T20:53:04.357Z,0.03
2019-01-24T20:55:30.751Z,0.01
2019-01-24T20:57:56.995Z,0.02
2019-01-24T21:00:24.037Z,0.05
2019-01-24T21:02:50.712Z,0.03
2019-01-24T21:05:18.968Z,0.00
2019-01-24T21:07:45.414Z,-0.03
2019-01-24T21:10:14.828Z,-0.06
2019-01-24T21:12:40.960Z,-0.11
2019-01-24T21:15:10.364Z,-0.14
2019-01-24T21:17:36.534Z,-0.18
2019-01-24T21:20:06.296Z,-0.21
2019-01-24T21:22:32.464Z,-0.26
2019-01-24T21:24:58.616Z,-0.32
2019-01-24T21:27:24.877Z,-0.36
2019-01-24T21:29:51.066Z,-0.40
2019-01-24T21:32:17.244Z,-0.40
2019-01-24T21:34:43.437Z,-0.41
2019-01-24T21:37:10.558Z,-0.44
2019-01-24T21:39:37.099Z,-0.49
2019-01-24T21:42:03.687Z,-0.53
2019-01-24T21:44:29.832Z,-0.55
2019-01-24T21:46:56.001Z,-0.57
2019-01-24T21:49:22.185Z,-0.60
2019-01-24T21:51:48.678Z,-0.68
2019-01-24T21:54:14.812Z,-0.74
2019-01-24T21:56:40.994Z,-0.77
2019-01-24T21:59:07.156Z,-0.79
2019-01-24T22:01:33.328Z,-0.78
2019-01-24T22:03:59.461Z,-0.81
2019-01-24T22:06:25.834Z,-0.83
2019-01-24T22:08:52.030Z,-0.86
2019-01-24T22:11:18.179Z,-0.90
2019-01-24T22:13:44.330Z,-0.94
2019-01-24T22:16:10.589Z,-0.95
2019-01-24T22:18:37.016Z,-0.97
2019-01-24T22:21:03.814Z,-1.00
2019-01-24T22:23:29.969Z,-1.00
2019-01-24T22:25:56.096Z,-0.99
2019-01-24T22:28:22.275Z,-1.01
2019-01-24T22:30:49.345Z,-1.05
2019-01-24T22:33:15.484Z,-1.07
2019-01-24T22:35:41.655Z,-1.07
2019-01-24T22:38:09.327Z,-1.09
2019-01-24T22:40:35.468Z,-1.12
2019-01-24T22:43:01.652Z,-1.17
2019-01-24T22:45:27.941Z,-1.15
2019-01-24T22:47:54.062Z,-1.15
2019-01-24T22:50:20.327Z,-1.16
2019-01-24T22:52:46.487Z,-1.14
2019-01-24T22:55:13.051Z,-1.13
2019-01-24T22:57:39.206Z,-1.11
2019-01-24T23:00:50.064Z,-1.11
2019-01-24T23:03:19.631Z,-1.11
2019-01-24T23:05:45.892Z,-1.13
2019-01-24T23:08:12.244Z,-1.15
2019-01-24T23:10:38.488Z,-1.16
2019-01-24T23:13:05.073Z,-1.09
2019-01-24T23:15:31.375Z,-1.10
2019-01-24T23:17:57.543Z,-1.09
2019-01-24T23:20:23.659Z,-1.09
2019-01-24T23:22:49.790Z,-1.10
2019-01-24T23:25:16.011Z,-1.11
2019-01-24T23:27:42.224Z,-1.11
2019-01-24T23:30:10.928Z,-1.10
2019-01-24T23:32:37.060Z,-1.10
2019-01-24T23:35:05.644Z,-1.10
2019-01-24T23:37:31.911Z,-1.10
2019-01-24T23:39:58.095Z,-1.10
2019-01-24T23:42:24.349Z,-1.10
2019-01-24T23:44:50.586Z,-1.08
2019-01-24T23:47:16.714Z,-1.06
2019-01-24T23:49:42.879Z,-1.04
2019-01-24T23:52:10.836Z,-1.02
2019-01-24T23:54:37.277Z,-1.05
2019-01-24T23:57:03.470Z,-1.07
2019-01-24T23:59:29.626Z,-1.12
